Time;durP1;ratioP1;P1;durP2;ratioP2;P2;SDS_P1;SDS_P2;PMS_P1;PMS_P2;Temp;Humidity;BMP_temperature;BMP_pressure;BME280_temperature;BME280_humidity;BME280_pressure;Samples;Min_cycle;Max_cycle;Signal;HPM_P1;HPM_P2
2023/06/12 00:02:14;;;;;;;21.73;8.98;;;;;;;20.64;51.91;101352.09;4985951;28;20505;-78
2023/06/12 00:04:39;;;;;;;24.40;9.57;;;;;;;20.61;52.24;101352.19;4987394;28;20110;-84
2023/06/12 00:07:05;;;;;;;26.00;9.77;;;;;;;20.49;53.77;101357.00;4984312;28;20027;-61
2023/06/12 00:09:33;;;;;;;24.75;8.90;;;;;;;20.47;54.50;101350.78;4984348;28;20566;-61
2023/06/12 00:11:58;;;;;;;22.65;8.82;;;;;;;20.38;54.31;101349.22;4987486;28;20420;-63
2023/06/12 00:14:24;;;;;;;23.15;9.25;;;;;;;20.27;55.46;101346.00;4985007;28;20053;-61
2023/06/12 00:16:49;;;;;;;26.67;9.20;;;;;;;20.24;55.33;101338.03;4986057;28;20121;-62
2023/06/12 00:19:15;;;;;;;23.23;9.02;;;;;;;20.23;56.39;101343.41;4986212;28;20362;-61
2023/06/12 00:21:41;;;;;;;22.23;9.35;;;;;;;20.14;56.69;101349.91;4984481;28;20034;-61
2023/06/12 00:24:08;;;;;;;22.15;9.05;;;;;;;20.06;57.85;101350.13;4987497;28;20501;-62
2023/06/12 00:26:37;;;;;;;22.50;8.98;;;;;;;19.98;56.56;101357.50;4982577;28;20037;-62
2023/06/12 00:29:02;;;;;;;21.98;8.70;;;;;;;20.00;57.11;101355.69;4980098;28;20023;-63
2023/06/12 00:31:27;;;;;;;20.52;8.68;;;;;;;19.89;57.99;101352.41;4987041;28;20113;-60
2023/06/12 00:33:53;;;;;;;21.38;8.90;;;;;;;19.78;58.55;101353.56;4984805;28;20050;-62
2023/06/12 00:36:18;;;;;;;21.73;9.00;;;;;;;19.67;60.23;101352.91;4984279;28;20175;-61
2023/06/12 00:38:43;;;;;;;20.83;9.23;;;;;;;19.54;60.41;101351.47;4986177;28;20027;-63
2023/06/12 00:41:09;;;;;;;20.10;8.60;;;;;;;19.42;58.51;101348.16;4983896;28;21079;-61
2023/06/12 00:43:34;;;;;;;20.35;9.00;;;;;;;19.43;56.87;101347.25;4987293;28;20039;-65
2023/06/12 00:46:00;;;;;;;19.40;8.50;;;;;;;19.41;59.08;101350.88;4983855;28;20030;-62
2023/06/12 00:48:26;;;;;;;20.95;9.02;;;;;;;19.33;60.06;101345.72;4986234;28;20540;-62
2023/06/12 00:50:52;;;;;;;19.63;8.75;;;;;;;19.29;58.25;101344.91;4985023;28;20038;-62
2023/06/12 00:53:18;;;;;;;20.80;8.52;;;;;;;19.23;59.07;101349.53;4985111;28;20038;-81
2023/06/12 00:55:43;;;;;;;19.63;8.95;;;;;;;19.18;57.36;101336.25;4985853;28;20026;-67
2023/06/12 00:58:09;;;;;;;20.05;8.38;;;;;;;19.24;57.99;101343.28;4983782;28;20421;-77
2023/06/12 01:00:38;;;;;;;21.02;8.98;;;;;;;19.17;58.86;101346.06;4985802;28;20038;-63
2023/06/12 01:03:07;;;;;;;19.73;8.73;;;;;;;19.17;58.33;101346.06;4979768;28;20038;-61
2023/06/12 01:05:45;;;;;;;19.45;8.48;;;;;;;19.13;58.60;101343.50;4986779;28;20057;-70
2023/06/12 01:08:29;;;;;;;20.13;8.90;;;;;;;19.03;58.30;101342.84;4981097;28;20109;-66
2023/06/12 01:11:02;;;;;;;19.33;8.85;;;;;;;18.99;59.22;101351.88;4984348;28;20030;-61
2023/06/12 01:13:28;;;;;;;20.67;9.23;;;;;;;18.96;61.33;101344.78;4986133;28;20058;-66
2023/06/12 01:15:53;;;;;;;20.48;9.27;;;;;;;18.91;61.88;101344.00;4983942;28;20484;-63
2023/06/12 01:18:21;;;;;;;21.83;9.38;;;;;;;18.90;62.16;101344.03;4984877;28;20023;-69
2023/06/12 01:20:47;;;;;;;20.35;9.02;;;;;;;18.78;62.75;101342.47;4984744;28;20089;-66
2023/06/12 01:23:36;;;;;;;19.10;9.10;;;;;;;18.78;63.55;101343.34;4983581;28;20474;-74
2023/06/12 01:26:18;;;;;;;20.40;9.30;;;;;;;18.72;63.45;101342.63;4982837;28;20042;-71
2023/06/12 01:29:06;;;;;;;19.92;9.10;;;;;;;18.72;60.88;101354.19;4981729;28;20033;-62
2023/06/12 01:31:43;;;;;;;20.63;9.30;;;;;;;18.64;60.90;101348.16;4982583;28;20023;-64
2023/06/12 01:34:16;;;;;;;20.92;9.70;;;;;;;18.53;60.47;101348.34;4979800;28;20084;-66
2023/06/12 01:36:48;;;;;;;20.73;9.07;;;;;;;18.42;62.81;101351.28;4985445;28;20030;-61
2023/06/12 01:39:15;;;;;;;20.85;9.63;;;;;;;18.41;61.46;101346.81;4983827;28;20483;-71
2023/06/12 01:41:41;;;;;;;21.00;9.65;;;;;;;18.40;60.70;101346.84;4984792;28;20042;-65
2023/06/12 01:44:10;;;;;;;21.73;10.20;;;;;;;18.44;60.16;101353.91;4982330;28;20498;-61
2023/06/12 01:46:37;;;;;;;21.02;9.50;;;;;;;18.29;62.69;101355.97;4986045;28;20031;-62
2023/06/12 01:49:08;;;;;;;21.08;9.55;;;;;;;18.26;66.34;101360.50;4978542;28;20474;-65
2023/06/12 01:51:33;;;;;;;20.55;9.77;;;;;;;18.22;67.33;101354.34;4978718;28;20031;-66
2023/06/12 01:54:00;;;;;;;20.30;9.93;;;;;;;18.26;67.13;101349.78;4985410;28;20084;-66
2023/06/12 01:56:27;;;;;;;21.58;9.80;;;;;;;18.23;66.53;101350.75;4983046;28;20026;-66
2023/06/12 01:58:53;;;;;;;20.30;9.52;;;;;;;18.23;64.83;101361.47;4984168;28;20470;-73
2023/06/12 02:01:18;;;;;;;21.67;9.95;;;;;;;18.14;64.54;101358.06;4983152;28;20038;-84
2023/06/12 02:03:45;;;;;;;20.88;9.63;;;;;;;18.17;64.10;101360.69;4983142;28;20081;-74
2023/06/12 02:06:14;;;;;;;21.27;9.60;;;;;;;18.14;66.08;101360.75;4985196;28;20019;-61
2023/06/12 02:08:39;;;;;;;20.15;9.70;;;;;;;18.12;65.75;101367.00;4982734;28;20038;-65
2023/06/12 02:11:05;;;;;;;21.20;9.70;;;;;;;18.05;67.48;101360.00;4985933;28;20454;-73
2023/06/12 02:13:30;;;;;;;19.90;9.52;;;;;;;18.01;67.43;101358.28;4982157;28;20018;-84
2023/06/12 02:15:55;;;;;;;21.10;9.93;;;;;;;17.99;67.46;101361.91;4984575;28;20039;-70
2023/06/12 02:18:21;;;;;;;21.27;10.30;;;;;;;17.96;65.77;101357.50;4983383;28;20022;-69
2023/06/12 02:20:49;;;;;;;22.13;10.13;;;;;;;17.85;66.49;101354.09;4982903;28;20082;-81
2023/06/12 02:23:14;;;;;;;20.38;9.70;;;;;;;17.78;65.95;101354.22;4984469;28;20080;-62
2023/06/12 02:25:40;;;;;;;20.77;10.27;;;;;;;17.81;65.96;101347.94;4982301;28;20550;-61
2023/06/12 02:28:05;;;;;;;20.95;9.82;;;;;;;17.74;69.04;101347.16;4985476;28;20030;-66
2023/06/12 02:30:30;;;;;;;21.38;9.40;;;;;;;17.68;69.41;101343.69;4982194;28;20073;-64
2023/06/12 02:32:57;;;;;;;22.90;10.32;;;;;;;17.53;71.94;101336.81;4984604;28;20373;-63
2023/06/12 02:35:22;;;;;;;21.20;9.90;;;;;;;17.50;70.98;101340.41;4983516;28;20045;-65
2023/06/12 02:37:48;;;;;;;20.40;10.13;;;;;;;17.52;71.98;101343.09;4983516;28;20023;-61
2023/06/12 02:40:13;;;;;;;20.23;10.30;;;;;;;17.40;74.13;101337.03;4984337;28;20095;-64
2023/06/12 02:42:38;;;;;;;20.52;10.20;;;;;;;17.33;74.90;101338.03;4982377;28;20047;-66
2023/06/12 02:45:04;;;;;;;21.77;10.82;;;;;;;17.33;74.70;101339.81;4985015;28;20026;-62
2023/06/12 02:47:30;;;;;;;22.75;10.32;;;;;;;17.25;76.60;101348.81;4982213;28;20042;-66
2023/06/12 02:49:55;;;;;;;21.08;10.93;;;;;;;17.28;76.36;101347.03;4984309;28;20039;-64
2023/06/12 02:52:20;;;;;;;22.10;11.15;;;;;;;17.19;76.92;101342.72;4982136;28;20038;-65
2023/06/12 02:54:46;;;;;;;23.05;11.27;;;;;;;17.22;76.77;101346.22;4984835;28;20042;-65
2023/06/12 02:57:11;;;;;;;24.23;11.50;;;;;;;17.20;72.90;101341.81;4988582;28;20026;-67
2023/06/12 02:59:37;;;;;;;23.63;11.63;;;;;;;17.17;75.83;101333.81;4985506;28;20034;-62
2023/06/12 03:02:02;;;;;;;22.55;11.55;;;;;;;17.08;75.37;101346.44;4988686;28;20034;-61
2023/06/12 03:04:27;;;;;;;23.45;12.02;;;;;;;16.95;77.05;101342.19;4986240;28;20114;-62
2023/06/12 03:06:53;;;;;;;22.05;11.77;;;;;;;16.90;77.69;101333.34;4987562;28;20023;-83
2023/06/12 03:09:19;;;;;;;22.33;12.35;;;;;;;16.93;77.04;101335.97;4987869;28;20030;-83
2023/06/12 03:11:46;;;;;;;23.58;12.30;;;;;;;16.89;78.46;101343.16;4986292;28;20030;-84
2023/06/12 03:14:14;;;;;;;22.27;12.88;;;;;;;16.83;78.63;101334.28;4988080;28;20084;-83
2023/06/12 03:16:40;;;;;;;22.92;12.43;;;;;;;16.84;80.16;101341.41;4989393;28;20042;-65
2023/06/12 03:19:06;;;;;;;21.95;12.30;;;;;;;16.82;77.50;101343.19;4985549;28;20034;-82
2023/06/12 03:21:31;;;;;;;23.02;12.30;;;;;;;16.70;81.10;101344.25;4988084;28;20058;-83
2023/06/12 03:23:57;;;;;;;22.60;12.48;;;;;;;16.70;81.86;101349.59;4986172;28;20062;-79
2023/06/12 03:26:23;;;;;;;24.63;12.02;;;;;;;16.70;82.98;101345.16;4987012;28;20049;-82
2023/06/12 03:28:49;;;;;;;22.48;12.07;;;;;;;16.63;83.75;101355.91;4986920;28;20031;-83
2023/06/12 03:31:14;;;;;;;25.83;12.88;;;;;;;16.66;85.59;101354.09;4985116;28;20027;-83
2023/06/12 03:33:40;;;;;;;23.10;12.57;;;;;;;16.67;85.08;101352.31;4985374;28;20042;-84
2023/06/12 03:36:05;;;;;;;24.20;12.75;;;;;;;16.56;82.62;101352.44;4988440;28;20080;-84
2023/06/12 03:38:31;;;;;;;22.88;11.88;;;;;;;16.56;83.60;101349.78;4984171;28;20034;-76
2023/06/12 03:40:56;;;;;;;23.67;12.60;;;;;;;16.56;83.39;101368.47;4987262;28;20115;-82
2023/06/12 03:43:21;;;;;;;23.08;12.48;;;;;;;16.56;83.70;101363.13;4986477;28;20488;-84
2023/06/12 03:45:47;;;;;;;22.83;12.52;;;;;;;16.58;85.94;101361.31;4985961;28;20027;-84
2023/06/12 03:48:12;;;;;;;23.85;12.50;;;;;;;16.50;86.75;101369.41;4987333;28;20027;-61
2023/06/12 03:50:38;;;;;;;25.50;11.95;;;;;;;16.51;86.85;101370.28;4984579;28;20035;-83
2023/06/12 03:53:03;;;;;;;23.45;12.45;;;;;;;16.48;88.16;101365.00;4980774;28;20061;-85
2023/06/12 03:55:29;;;;;;;24.70;12.60;;;;;;;16.47;87.39;101366.78;4987241;28;20389;-84
2023/06/12 03:57:54;;;;;;;23.15;12.70;;;;;;;16.48;89.34;101363.19;4985864;28;20470;-83
2023/06/12 04:00:20;;;;;;;21.90;12.38;;;;;;;16.48;90.12;101363.19;4985862;28;20101;-68
2023/06/12 04:02:46;;;;;;;25.10;13.50;;;;;;;16.50;86.62;101363.22;4986579;28;20030;-83
2023/06/12 04:05:12;;;;;;;23.88;12.80;;;;;;;16.54;90.05;101368.47;4984441;28;20130;-66
2023/06/12 04:07:38;;;;;;;25.55;13.05;;;;;;;16.62;90.02;101372.84;4987637;28;20029;-83
2023/06/12 04:10:04;;;;;;;24.77;13.25;;;;;;;16.61;88.66;101376.41;4980390;28;20070;-63
2023/06/12 04:12:30;;;;;;;25.90;13.25;;;;;;;16.63;89.38;101380.84;4987332;28;20027;-65
2023/06/12 04:14:56;;;;;;;25.83;13.75;;;;;;;16.63;91.73;101378.16;4985139;28;20097;-67
2023/06/12 04:17:21;;;;;;;24.98;14.10;;;;;;;16.60;87.02;101380.88;4985675;28;20370;-63
2023/06/12 04:19:50;;;;;;;24.58;13.40;;;;;;;16.65;92.60;101378.13;4985099;28;20062;-64
2023/06/12 04:22:16;;;;;;;26.20;14.20;;;;;;;16.64;92.34;101385.25;4984997;28;20031;-63
2023/06/12 04:24:45;;;;;;;23.75;14.30;;;;;;;16.64;92.89;101384.38;4986943;28;20030;-62
2023/06/12 04:27:11;;;;;;;25.25;14.00;;;;;;;16.65;93.13;101384.34;4984728;28;20023;-61
2023/06/12 04:29:42;;;;;;;24.38;13.85;;;;;;;16.64;100.00;101387.91;4987259;28;20353;-61
2023/06/12 04:32:09;;;;;;;23.98;14.35;;;;;;;16.71;97.03;101386.94;4980366;28;20031;-60
2023/06/12 04:34:39;;;;;;;23.98;14.23;;;;;;;16.70;97.70;101387.88;4987581;28;20027;-61
2023/06/12 04:37:08;;;;;;;23.67;14.52;;;;;;;16.74;96.22;101381.56;4980190;28;20027;-60
2023/06/12 04:39:36;;;;;;;23.00;13.25;;;;;;;16.83;97.17;101390.34;4979762;28;20062;-60
2023/06/12 04:42:02;;;;;;;27.73;14.43;;;;;;;16.81;97.65;101378.84;4986585;28;20100;-62
2023/06/12 04:44:30;;;;;;;23.95;14.23;;;;;;;16.86;98.21;101380.53;4984672;28;20035;-61
2023/06/12 04:46:56;;;;;;;25.65;14.13;;;;;;;16.93;93.28;101384.03;4985762;28;20027;-63
2023/06/12 04:49:22;;;;;;;25.10;14.88;;;;;;;16.96;91.93;101385.78;4985250;28;20038;-64
2023/06/12 04:51:48;;;;;;;25.52;14.63;;;;;;;16.97;93.60;101384.88;4985060;28;20081;-62
2023/06/12 04:54:17;;;;;;;25.50;15.05;;;;;;;17.06;91.49;101387.41;4986419;28;20034;-65
2023/06/12 04:56:44;;;;;;;26.00;15.52;;;;;;;17.19;89.82;101390.81;4983881;28;20033;-62
2023/06/12 04:59:10;;;;;;;23.23;14.43;;;;;;;17.28;90.48;101385.31;4986742;28;20030;-63
2023/06/12 05:01:36;;;;;;;25.73;15.23;;;;;;;17.39;90.61;101394.06;4983258;28;20081;-61
2023/06/12 05:04:01;;;;;;;23.70;14.90;;;;;;;17.37;93.83;101393.22;4986148;28;20046;-61
2023/06/12 05:06:28;;;;;;;25.38;14.65;;;;;;;17.37;94.11;101394.97;4983162;28;20081;-61
2023/06/12 05:08:53;;;;;;;29.17;14.98;;;;;;;17.42;96.01;101385.97;4985121;28;20109;-62
2023/06/12 05:11:18;;;;;;;24.33;14.55;;;;;;;17.52;91.32;101394.75;4985425;28;20061;-61
2023/06/12 05:13:44;;;;;;;25.83;15.63;;;;;;;17.59;90.93;101395.50;4983947;28;20449;-61
2023/06/12 05:16:09;;;;;;;25.55;15.73;;;;;;;17.71;90.36;101395.34;4985847;28;20389;-66
2023/06/12 05:18:35;;;;;;;27.27;16.08;;;;;;;17.81;89.96;101396.06;4982810;28;20046;-61
2023/06/12 05:21:00;;;;;;;25.85;15.50;;;;;;;17.84;93.22;101389.75;4985822;28;20050;-64
2023/06/12 05:23:26;;;;;;;27.25;16.33;;;;;;;17.94;87.06;101391.44;4983959;28;20030;-66
2023/06/12 05:25:51;;;;;;;28.73;16.90;;;;;;;18.05;85.19;101394.78;4984889;28;20063;-62
2023/06/12 05:28:17;;;;;;;26.23;17.27;;;;;;;18.13;87.77;101402.69;4985130;28;20053;-66
2023/06/12 05:30:44;;;;;;;27.90;17.73;;;;;;;18.20;83.47;101398.06;4983045;28;20038;-84
2023/06/12 05:33:09;;;;;;;27.67;17.17;;;;;;;18.25;85.19;101405.09;4977619;28;20031;-60
2023/06/12 05:35:35;;;;;;;28.52;16.70;;;;;;;18.36;83.07;101387.97;4978412;28;20053;-62
2023/06/12 05:38:00;;;;;;;27.27;16.80;;;;;;;18.42;80.13;101391.41;4973005;28;20050;-67
2023/06/12 05:40:26;;;;;;;26.10;17.20;;;;;;;18.46;80.13;101390.44;4975777;28;21289;-66
2023/06/12 05:42:51;;;;;;;24.42;16.40;;;;;;;18.59;81.10;101392.88;4975727;28;20442;-65
2023/06/12 05:45:17;;;;;;;26.98;17.38;;;;;;;18.64;80.71;101386.50;4973510;28;20023;-85
2023/06/12 05:47:42;;;;;;;26.25;16.80;;;;;;;18.77;78.44;101384.47;4981344;28;20049;-81
2023/06/12 05:50:07;;;;;;;27.48;15.98;;;;;;;18.80;76.92;101384.38;4979993;28;20034;-64
2023/06/12 05:52:33;;;;;;;24.70;14.73;;;;;;;18.91;76.37;101383.31;4975257;28;20924;-74
2023/06/12 05:54:58;;;;;;;25.67;14.80;;;;;;;19.04;73.12;101384.78;4975137;28;20042;-81
2023/06/12 05:57:24;;;;;;;24.67;14.60;;;;;;;19.07;74.51;101387.41;4978173;28;20031;-72
2023/06/12 05:59:49;;;;;;;23.85;14.15;;;;;;;19.15;74.90;101385.44;4981137;28;20026;-70
2023/06/12 06:02:14;;;;;;;24.52;13.63;;;;;;;19.26;71.13;101390.53;4977691;28;20030;-69
2023/06/12 06:04:40;;;;;;;24.42;13.40;;;;;;;19.30;70.09;101389.56;4975206;28;20031;-67
2023/06/12 06:07:07;;;;;;;25.05;13.95;;;;;;;19.32;69.32;101386.84;4977421;28;20034;-64
2023/06/12 06:09:33;;;;;;;23.40;13.35;;;;;;;19.37;69.38;101384.94;4973599;28;20050;-72
2023/06/12 06:11:58;;;;;;;23.63;13.10;;;;;;;19.40;70.82;101390.22;4977319;28;20110;-71
2023/06/12 06:14:24;;;;;;;24.58;12.85;;;;;;;19.42;70.59;101388.38;4980261;28;20026;-73
2023/06/12 06:16:49;;;;;;;24.00;13.25;;;;;;;19.50;69.94;101394.44;4976937;28;20114;-71
2023/06/12 06:19:14;;;;;;;23.02;12.00;;;;;;;19.58;69.26;101394.25;4976149;28;20023;-65
2023/06/12 06:21:40;;;;;;;23.33;12.25;;;;;;;19.63;68.54;101397.72;4977885;28;20121;-68
2023/06/12 06:24:07;;;;;;;23.42;12.18;;;;;;;19.72;67.56;101396.59;4979866;28;20027;-67
2023/06/12 06:26:32;;;;;;;23.33;11.70;;;;;;;19.79;67.84;101400.94;4975640;28;20092;-64
2023/06/12 06:28:57;;;;;;;23.05;11.85;;;;;;;19.88;67.97;101401.59;4977699;28;20389;-68
2023/06/12 06:31:23;;;;;;;22.70;11.43;;;;;;;19.97;67.31;101401.38;4976206;28;20027;-67
2023/06/12 06:33:48;;;;;;;22.55;11.50;;;;;;;20.12;65.17;101398.25;4980722;28;20035;-68
2023/06/12 06:36:14;;;;;;;22.85;11.32;;;;;;;20.24;66.07;101398.88;4977818;28;20042;-74
2023/06/12 06:38:40;;;;;;;24.10;10.85;;;;;;;20.34;66.53;101392.31;4978031;28;20035;-64
2023/06/12 06:41:05;;;;;;;23.83;10.80;;;;;;;20.45;65.01;101398.28;4974886;28;20042;-67
2023/06/12 06:43:31;;;;;;;22.90;11.25;;;;;;;20.51;63.14;101407.97;4972742;28;20090;-68
2023/06/12 06:45:56;;;;;;;21.95;10.60;;;;;;;20.56;62.78;101395.28;4973782;28;20147;-73
2023/06/12 06:48:21;;;;;;;21.77;10.48;;;;;;;20.59;61.74;101400.59;4976793;28;20064;-72
2023/06/12 06:50:47;;;;;;;22.25;10.80;;;;;;;20.63;61.25;101406.72;4979756;28;20505;-73
2023/06/12 06:53:12;;;;;;;23.45;10.65;;;;;;;20.71;62.23;101402.06;4977905;28;20485;-63
2023/06/12 06:55:38;;;;;;;22.33;10.55;;;;;;;20.83;62.94;101403.50;4978353;28;20031;-73
2023/06/12 06:58:04;;;;;;;21.02;10.55;;;;;;;20.95;61.97;101397.75;4978399;28;20046;-70
2023/06/12 07:00:30;;;;;;;21.85;10.32;;;;;;;21.10;62.14;101395.53;4973775;28;20385;-69
2023/06/12 07:02:55;;;;;;;21.67;10.77;;;;;;;21.15;61.19;101396.28;4974776;28;20030;-66
2023/06/12 07:05:21;;;;;;;21.27;10.32;;;;;;;21.25;60.40;101397.75;4977657;28;20054;-66
2023/06/12 07:07:48;;;;;;;24.90;10.02;;;;;;;21.40;59.14;101393.69;4976242;28;20386;-66
2023/06/12 07:10:14;;;;;;;21.67;9.90;;;;;;;21.51;57.97;101394.25;4972738;28;20470;-65
2023/06/12 07:12:40;;;;;;;20.58;9.05;;;;;;;21.64;58.47;101396.53;4974544;28;20035;-73
2023/06/12 07:15:06;;;;;;;20.23;8.68;;;;;;;21.82;58.86;101393.22;4973566;28;20718;-67
2023/06/12 07:17:32;;;;;;;22.35;9.20;;;;;;;21.94;56.90;101392.81;4976967;28;20068;-65
2023/06/12 07:19:57;;;;;;;21.17;8.80;;;;;;;22.04;55.61;101387.97;4973455;28;20129;-62
2023/06/12 07:22:24;;;;;;;20.48;8.68;;;;;;;22.18;55.41;101384.81;4974445;28;20050;-83
2023/06/12 07:24:49;;;;;;;20.00;8.60;;;;;;;22.27;55.19;101387.16;4978067;28;20452;-70
2023/06/12 07:27:15;;;;;;;20.13;8.48;;;;;;;22.45;56.63;101384.75;4977335;28;20068;-63
2023/06/12 07:29:40;;;;;;;20.83;8.80;;;;;;;22.54;53.80;101384.44;4976340;28;20118;-70
2023/06/12 07:32:06;;;;;;;21.30;8.50;;;;;;;22.69;53.81;101385.66;4979331;28;20121;-68
2023/06/12 07:34:31;;;;;;;22.38;8.75;;;;;;;22.79;53.10;101380.81;4973564;28;20058;-69
2023/06/12 07:36:58;;;;;;;20.45;8.48;;;;;;;22.88;52.47;101382.28;4975139;28;20039;-65
2023/06/12 07:39:24;;;;;;;20.48;8.73;;;;;;;23.00;52.19;101380.91;4978346;28;20034;-70
2023/06/12 07:41:50;;;;;;;20.58;8.35;;;;;;;23.13;52.28;101380.38;4977033;28;20085;-63
2023/06/12 07:44:15;;;;;;;19.33;8.15;;;;;;;23.27;50.41;101384.34;4981078;28;20066;-80
2023/06/12 07:46:42;;;;;;;21.38;8.60;;;;;;;23.40;50.52;101387.41;4980504;28;20047;-72
2023/06/12 07:49:07;;;;;;;19.77;8.15;;;;;;;23.50;50.03;101384.28;4979814;28;20207;-68
2023/06/12 07:51:33;;;;;;;19.30;8.18;;;;;;;23.55;50.08;101378.72;4979819;28;20485;-64
2023/06/12 07:53:58;;;;;;;20.90;8.38;;;;;;;23.63;51.47;101383.78;4976211;28;20089;-69
2023/06/12 07:56:24;;;;;;;19.50;7.70;;;;;;;23.71;50.95;101383.44;4978981;28;20058;-63
2023/06/12 07:58:50;;;;;;;20.33;7.97;;;;;;;23.78;48.83;101375.03;4980877;28;20475;-63
2023/06/12 08:01:17;;;;;;;19.60;8.50;;;;;;;23.88;48.45;101385.47;4979879;28;20035;-68
2023/06/12 08:03:43;;;;;;;20.60;8.77;;;;;;;23.89;48.03;101376.44;4976961;28;20485;-67
2023/06/12 08:06:13;;;;;;;20.10;8.68;;;;;;;24.01;47.82;101386.69;4981267;28;20097;-63
2023/06/12 08:08:47;;;;;;;20.60;8.20;;;;;;;24.17;48.37;101384.19;4986124;28;20149;-66
2023/06/12 08:11:13;;;;;;;19.23;7.80;;;;;;;24.31;48.14;101384.47;4986302;28;20520;-72
2023/06/12 08:13:40;;;;;;;20.77;8.30;;;;;;;24.46;47.95;101373.91;4986234;28;20053;-70
2023/06/12 08:16:06;;;;;;;20.73;8.63;;;;;;;24.65;48.53;101369.44;4985425;28;20422;-70
2023/06/12 08:18:31;;;;;;;20.20;8.02;;;;;;;24.79;46.53;101378.75;4986912;28;20030;-62
2023/06/12 08:21:00;;;;;;;19.98;8.30;;;;;;;24.96;47.27;101373.41;4984027;28;20055;-68
2023/06/12 08:23:25;;;;;;;20.75;8.55;;;;;;;25.22;46.99;101372.16;4980511;28;20130;-63
2023/06/12 08:25:50;;;;;;;20.05;7.78;;;;;;;25.26;45.20;101372.84;4987269;28;20113;-65
2023/06/12 08:28:16;;;;;;;20.08;8.05;;;;;;;25.38;44.95;101372.31;4985078;28;20026;-63
2023/06/12 08:30:41;;;;;;;20.85;7.90;;;;;;;25.53;44.18;101375.19;4985764;28;20035;-67
2023/06/12 08:33:08;;;;;;;19.33;7.40;;;;;;;25.69;43.69;101372.59;4985984;28;20034;-63
2023/06/12 08:35:34;;;;;;;21.08;8.05;;;;;;;25.97;44.15;101380.16;4984921;28;20022;-62
2023/06/12 08:38:00;;;;;;;20.13;7.60;;;;;;;26.04;42.76;101376.22;4986735;28;20034;-62
2023/06/12 08:40:26;;;;;;;18.20;7.38;;;;;;;26.12;41.89;101378.50;4983802;28;20035;-62
2023/06/12 08:42:51;;;;;;;19.98;7.68;;;;;;;26.31;42.82;101372.97;4986971;28;20390;-62
2023/06/12 08:45:19;;;;;;;19.77;7.75;;;;;;;26.52;43.13;101375.47;4983212;28;20424;-62
2023/06/12 08:47:49;;;;;;;18.58;7.40;;;;;;;26.59;41.24;101376.91;4985924;28;20390;-63
2023/06/12 08:50:19;;;;;;;19.20;7.63;;;;;;;26.83;42.73;101376.56;4984571;28;20244;-62
2023/06/12 08:52:47;;;;;;;18.95;7.78;;;;;;;27.02;41.94;101373.69;4975666;28;20034;-61
2023/06/12 08:55:14;;;;;;;18.60;7.65;;;;;;;27.13;41.46;101365.81;4976983;28;20027;-68
2023/06/12 08:57:41;;;;;;;20.85;7.65;;;;;;;27.20;40.91;101366.31;4978310;28;20034;-61
2023/06/12 09:00:11;;;;;;;20.30;7.60;;;;;;;27.34;41.92;101366.44;4975566;28;20030;-62
2023/06/12 09:02:42;;;;;;;19.27;7.70;;;;;;;27.33;39.92;101367.34;4982652;28;20410;-61
2023/06/12 09:05:12;;;;;;;19.77;7.97;;;;;;;27.40;40.34;101363.34;4975042;28;20057;-68
2023/06/12 09:07:40;;;;;;;18.55;7.50;;;;;;;27.52;39.73;101360.88;4978964;28;20030;-63
2023/06/12 09:10:06;;;;;;;20.48;7.70;;;;;;;27.70;39.39;101359.81;4979879;28;20122;-71
2023/06/12 09:12:31;;;;;;;18.88;7.45;;;;;;;27.91;39.03;101356.75;4974680;28;20121;-74
2023/06/12 09:15:00;;;;;;;18.23;7.18;;;;;;;28.02;38.21;101365.16;4985200;28;20073;-64
2023/06/12 09:17:30;;;;;;;17.80;7.13;;;;;;;27.98;38.33;101353.59;4980683;28;20037;-67
2023/06/12 09:19:55;;;;;;;18.75;7.28;;;;;;;28.06;37.89;101355.88;4975943;28;20047;-69
2023/06/12 09:22:21;;;;;;;18.95;7.15;;;;;;;28.11;37.67;101353.72;4971974;28;20039;-63
2023/06/12 09:24:47;;;;;;;18.95;7.60;;;;;;;28.12;38.24;101360.03;4981878;28;20034;-68
2023/06/12 09:27:13;;;;;;;18.88;7.40;;;;;;;28.29;38.76;101345.41;4980752;28;20037;-66
2023/06/12 09:29:42;;;;;;;18.75;7.60;;;;;;;28.40;38.50;101347.41;4977073;28;20546;-64
2023/06/12 09:32:14;;;;;;;19.98;7.63;;;;;;;28.58;37.60;101342.69;4980370;28;20106;-62
2023/06/12 09:34:45;;;;;;;19.08;7.60;;;;;;;28.70;37.54;101350.06;4977632;28;20113;-66
2023/06/12 09:37:12;;;;;;;19.58;7.43;;;;;;;28.89;35.63;101344.31;4978820;28;20035;-62
2023/06/12 09:39:38;;;;;;;19.25;7.35;;;;;;;29.06;36.70;101347.78;4976466;28;20023;-64
2023/06/12 09:42:03;;;;;;;17.85;7.05;;;;;;;29.24;36.41;101343.00;4977447;28;20089;-62
2023/06/12 09:44:30;;;;;;;18.13;7.03;;;;;;;29.48;35.62;101340.47;4981396;28;20027;-66
2023/06/12 09:47:04;;;;;;;20.38;7.00;;;;;;;29.58;35.56;101349.78;4976258;28;20031;-65
2023/06/12 09:49:30;;;;;;;19.20;7.80;;;;;;;29.51;35.39;101343.00;4981733;28;20031;-63
2023/06/12 09:52:00;;;;;;;19.55;7.38;;;;;;;29.55;36.14;101348.13;4974689;28;20041;-68
2023/06/12 09:54:29;;;;;;;18.65;7.38;;;;;;;29.52;35.88;101342.88;4975320;28;20030;-66
2023/06/12 09:56:57;;;;;;;18.55;7.35;;;;;;;29.49;35.88;101348.53;4975539;28;20019;-63
2023/06/12 09:59:27;;;;;;;18.23;7.10;;;;;;;29.62;34.63;101354.03;4980271;28;20049;-62
2023/06/12 10:02:08;;;;;;;18.27;7.30;;;;;;;29.70;34.81;101351.63;4974678;28;20030;-69
2023/06/12 10:04:54;;;;;;;18.65;7.00;;;;;;;29.86;34.93;101356.06;4974996;28;20022;-64
2023/06/12 10:07:24;;;;;;;18.85;7.15;;;;;;;30.62;33.90;101350.78;4980654;28;20077;-62
2023/06/12 10:09:50;;;;;;;18.02;6.93;;;;;;;31.50;32.67;101355.19;4978497;28;20041;-63
2023/06/12 10:12:16;;;;;;;18.02;6.78;;;;;;;32.59;30.43;101352.16;4985300;28;20056;-68
2023/06/12 10:14:43;;;;;;;17.92;7.07;;;;;;;34.37;28.76;101354.53;4982653;28;20046;-65
2023/06/12 10:17:10;;;;;;;18.88;7.50;;;;;;;35.22;27.28;101351.50;4984427;28;20031;-65
2023/06/12 10:19:40;;;;;;;19.77;6.93;;;;;;;36.15;25.68;101351.94;4983569;28;20054;-64
2023/06/12 10:22:06;;;;;;;16.75;6.60;;;;;;;36.73;25.54;101344.47;4983736;28;20117;-65
2023/06/12 10:24:33;;;;;;;17.05;6.80;;;;;;;37.61;24.31;101344.78;4984161;28;20041;-65
2023/06/12 10:27:00;;;;;;;16.92;6.47;;;;;;;37.71;23.75;101330.06;4982916;28;20031;-63
2023/06/12 10:29:26;;;;;;;17.65;6.50;;;;;;;37.97;23.92;101339.25;4984537;28;20030;-66
2023/06/12 10:31:52;;;;;;;17.48;6.50;;;;;;;38.02;23.48;101349.78;4982128;28;20037;-69
2023/06/12 10:34:17;;;;;;;17.67;6.20;;;;;;;38.33;22.53;101341.03;4985131;28;20393;-62
2023/06/12 10:36:45;;;;;;;17.23;6.10;;;;;;;38.96;21.43;101336.19;4982485;28;20064;-67
2023/06/12 10:39:19;;;;;;;17.40;6.13;;;;;;;38.28;22.76;101336.03;4984697;28;20517;-63
2023/06/12 10:41:59;;;;;;;17.55;6.53;;;;;;;38.37;22.79;101336.94;4982100;28;20038;-67
2023/06/12 10:44:35;;;;;;;17.98;6.78;;;;;;;38.46;22.25;101329.56;4979099;28;20039;-68
2023/06/12 10:47:02;;;;;;;15.90;6.20;;;;;;;39.31;21.72;101325.91;4984050;28;20037;-77
2023/06/12 10:49:27;;;;;;;15.13;6.20;;;;;;;40.40;19.82;101330.16;4982494;28;20027;-77
2023/06/12 10:51:53;;;;;;;16.58;6.35;;;;;;;41.05;20.34;101319.81;4984952;28;20030;-77
2023/06/12 10:54:26;;;;;;;17.23;6.35;;;;;;;41.02;20.59;101322.97;4970867;28;20425;-66
2023/06/12 10:57:02;;;;;;;15.98;6.20;;;;;;;41.53;19.78;101321.59;4976702;28;20041;-74
2023/06/12 10:59:35;;;;;;;17.80;6.25;;;;;;;41.57;19.17;101321.03;4976581;28;20385;-68
2023/06/12 11:02:02;;;;;;;16.17;6.10;;;;;;;41.45;18.80;101316.97;4973374;28;20508;-75
2023/06/12 11:04:27;;;;;;;17.15;6.20;;;;;;;41.27;18.63;101322.78;4978531;28;20049;-72
2023/06/12 11:06:53;;;;;;;17.02;6.28;;;;;;;41.42;18.63;101315.44;4976257;28;20031;-71
2023/06/12 11:09:18;;;;;;;17.80;6.60;;;;;;;41.49;19.45;101310.00;4979626;28;20027;-75
2023/06/12 11:11:50;;;;;;;18.05;6.45;;;;;;;41.10;19.52;101310.97;4980149;28;20026;-78
2023/06/12 11:14:16;;;;;;;16.75;6.50;;;;;;;40.94;18.93;101314.72;4971187;28;20034;-78